Mc Kenna, Washington
Current Conditions -  °F | °C
As of 10:58 PM on Sunday 21 Dec 2014 (Local Time) from KGRF Reporting Station
Drizzle Drizzle  
Wind Chill: 49°   Ceiling: 3000
Heat Index: 49°   Visibility: 10mi
Dew Point: 49°   Wind: 1mph
Humidity: 99%   Direction: 180°S
Pressure: 30.12"   Gusts: NA
Location:  46.9238°N, 122.553°W
Report Text: KGRF 220658Z 18001KT 10SM -DZ FEW022 BKN030 OVC037 09/09 A3012 RMK AO2A DZB21E23RAB23E33DZB33E36RAB43E56DZB56 SLP204 WND DATA ESTMD P0003 T00930092 $
Loading
Personal Weather Stations






























Interactive Weather Map New forecast layout! Learn more

10-Day Weather Forecast

Advertisements
Track Severe Weather on mobile